Time;durP1;ratioP1;P1;durP2;ratioP2;P2;SDS_P1;SDS_P2;PMS_P1;PMS_P2;Temp;Humidity;BMP_temperature;BMP_pressure;BME280_temperature;BME280_humidity;BME280_pressure;Samples;Min_cycle;Max_cycle;Signal;HPM_P1;HPM_P2
2021/07/03 00:01:56;;;;;;;13.57;9.63;;;17.30;99.90;;;;;;4991748;28;20455;-33
2021/07/03 00:04:22;;;;;;;12.93;9.68;;;17.30;99.90;;;;;;4990386;28;20129;-34
2021/07/03 00:06:48;;;;;;;13.27;10.27;;;17.30;99.90;;;;;;4991267;28;20045;-33
2021/07/03 00:09:14;;;;;;;13.40;10.32;;;17.30;99.90;;;;;;4991200;28;20030;-33
2021/07/03 00:11:40;;;;;;;14.15;10.27;;;17.30;99.90;;;;;;4990635;28;20165;-33
2021/07/03 00:14:07;;;;;;;13.57;10.80;;;17.30;99.90;;;;;;4991606;28;20074;-33
2021/07/03 00:16:33;;;;;;;13.30;10.68;;;17.20;99.90;;;;;;4991236;28;20022;-33
2021/07/03 00:19:05;;;;;;;14.20;10.20;;;17.20;99.90;;;;;;4990683;28;20488;-33
2021/07/03 00:21:32;;;;;;;16.20;10.52;;;17.20;99.90;;;;;;4991852;28;20081;-33
2021/07/03 00:23:57;;;;;;;14.32;10.77;;;17.20;99.90;;;;;;4990485;28;20029;-34
2021/07/03 00:26:23;;;;;;;13.93;10.40;;;17.10;99.90;;;;;;4990293;28;20018;-33
2021/07/03 00:28:49;;;;;;;13.32;9.90;;;17.10;99.90;;;;;;4991331;28;20022;-33
2021/07/03 00:31:14;;;;;;;13.70;10.63;;;17.10;99.90;;;;;;4990590;28;20018;-33
2021/07/03 00:33:40;;;;;;;13.52;11.20;;;17.10;99.90;;;;;;4990462;28;20022;-33
2021/07/03 00:36:05;;;;;;;15.07;11.32;;;17.00;99.90;;;;;;4991197;28;20080;-34
2021/07/03 00:38:31;;;;;;;14.95;11.20;;;17.00;99.90;;;;;;4991630;28;20030;-33
2021/07/03 00:40:56;;;;;;;15.13;11.90;;;17.00;99.90;;;;;;4989923;28;20022;-33
2021/07/03 00:43:22;;;;;;;16.75;11.70;;;17.00;99.90;;;;;;4991163;28;20138;-33
2021/07/03 00:45:48;;;;;;;15.95;11.10;;;17.00;99.90;;;;;;4990232;28;20109;-33
2021/07/03 00:48:16;;;;;;;17.15;12.40;;;16.90;99.90;;;;;;4990909;28;20081;-33
2021/07/03 00:50:43;;;;;;;17.83;11.88;;;16.90;99.90;;;;;;4991130;28;20033;-33
2021/07/03 00:53:09;;;;;;;16.05;12.05;;;16.90;99.90;;;;;;4989983;28;20081;-34
2021/07/03 00:55:35;;;;;;;17.38;12.60;;;16.90;99.90;;;;;;4990467;28;20030;-33
2021/07/03 00:58:01;;;;;;;15.43;11.77;;;16.90;99.90;;;;;;4989441;28;20347;-33
2021/07/03 01:00:27;;;;;;;17.75;12.73;;;16.90;99.90;;;;;;4990127;28;20045;-33
2021/07/03 01:02:52;;;;;;;13.77;11.70;;;16.90;99.90;;;;;;4990339;28;20037;-33
2021/07/03 01:05:18;;;;;;;16.25;12.23;;;16.80;99.90;;;;;;4990277;28;20069;-33
2021/07/03 01:07:44;;;;;;;16.58;12.25;;;16.80;99.90;;;;;;4990268;28;20034;-33
2021/07/03 01:10:21;;;;;;;16.55;11.68;;;16.70;99.90;;;;;;4990318;28;20042;-34
2021/07/03 01:12:47;;;;;;;16.83;12.52;;;16.70;99.90;;;;;;4990426;28;20077;-33
2021/07/03 01:15:14;;;;;;;17.88;12.95;;;16.70;99.90;;;;;;4989861;28;20146;-33
2021/07/03 01:17:39;;;;;;;16.63;12.15;;;16.70;99.90;;;;;;4989778;28;20355;-33
2021/07/03 01:20:05;;;;;;;16.50;12.25;;;16.60;99.90;;;;;;4990630;28;20037;-33
2021/07/03 01:22:32;;;;;;;17.00;12.15;;;16.70;99.90;;;;;;4989425;28;20030;-34
2021/07/03 01:24:58;;;;;;;16.25;11.85;;;16.60;99.90;;;;;;4990124;28;20030;-34
2021/07/03 01:27:23;;;;;;;16.65;11.52;;;16.60;99.90;;;;;;4990821;28;20045;-34
2021/07/03 01:29:49;;;;;;;18.02;12.98;;;16.60;99.90;;;;;;4989548;28;20030;-33
2021/07/03 01:32:15;;;;;;;17.23;12.15;;;16.60;99.90;;;;;;4989876;28;20554;-33
2021/07/03 01:34:40;;;;;;;16.77;11.70;;;16.60;99.90;;;;;;4990355;28;20425;-33
2021/07/03 01:37:06;;;;;;;20.25;12.88;;;16.50;99.90;;;;;;4989180;28;20030;-33
2021/07/03 01:39:32;;;;;;;17.67;11.95;;;16.50;99.90;;;;;;4990455;28;20105;-33
2021/07/03 01:41:58;;;;;;;16.15;12.40;;;16.50;99.90;;;;;;4989326;28;20097;-33
2021/07/03 01:44:25;;;;;;;18.05;12.40;;;16.50;99.90;;;;;;4990309;28;20033;-33
2021/07/03 01:46:53;;;;;;;17.92;12.80;;;16.50;99.90;;;;;;4990085;28;20413;-34
2021/07/03 01:49:19;;;;;;;18.98;14.27;;;16.50;99.90;;;;;;4989606;28;20022;-33
2021/07/03 01:51:45;;;;;;;16.60;12.02;;;16.50;99.90;;;;;;4990029;28;20022;-33
2021/07/03 01:54:11;;;;;;;18.92;13.23;;;16.40;99.90;;;;;;4988192;28;20412;-33
2021/07/03 01:56:44;;;;;;;16.88;13.00;;;16.50;99.90;;;;;;4989990;28;20018;-33
2021/07/03 01:59:11;;;;;;;17.67;12.85;;;16.50;99.90;;;;;;4990658;28;20025;-34
2021/07/03 02:01:37;;;;;;;18.02;12.77;;;16.40;99.90;;;;;;4990529;28;20022;-33
2021/07/03 02:04:03;;;;;;;16.08;12.90;;;16.40;99.90;;;;;;4988768;28;20351;-33
2021/07/03 02:06:29;;;;;;;16.25;12.75;;;16.50;99.90;;;;;;4989995;28;20051;-33
2021/07/03 02:08:55;;;;;;;17.83;12.85;;;16.50;99.90;;;;;;4989358;28;20077;-33
2021/07/03 02:11:21;;;;;;;19.90;13.10;;;16.40;99.90;;;;;;4989762;28;20022;-33
2021/07/03 02:13:46;;;;;;;17.80;12.65;;;16.40;99.90;;;;;;4989703;28;20034;-34
2021/07/03 02:16:12;;;;;;;18.08;12.90;;;16.40;99.90;;;;;;4989962;28;20031;-34
2021/07/03 02:18:37;;;;;;;18.35;12.55;;;16.40;99.90;;;;;;4989038;28;20019;-33
2021/07/03 02:21:03;;;;;;;18.67;12.90;;;16.40;99.90;;;;;;4989837;28;20030;-33
2021/07/03 02:23:28;;;;;;;16.23;12.40;;;16.30;99.90;;;;;;4991573;28;20022;-33
2021/07/03 02:25:54;;;;;;;16.90;12.95;;;16.30;99.90;;;;;;4993007;28;20037;-34
2021/07/03 02:28:20;;;;;;;17.23;12.43;;;16.30;99.90;;;;;;4993831;28;20026;-33
2021/07/03 02:30:45;;;;;;;16.20;12.88;;;16.20;99.90;;;;;;4993331;28;20496;-33
2021/07/03 02:33:12;;;;;;;16.55;12.50;;;16.30;99.90;;;;;;4992744;28;20038;-34
2021/07/03 02:35:38;;;;;;;18.10;12.95;;;16.20;99.90;;;;;;4993427;28;20035;-34
2021/07/03 02:38:04;;;;;;;20.90;13.65;;;16.20;99.90;;;;;;4993377;28;20026;-33
2021/07/03 02:40:29;;;;;;;17.70;12.85;;;16.20;99.90;;;;;;4992349;28;20054;-33
2021/07/03 02:42:55;;;;;;;17.45;13.82;;;16.20;99.90;;;;;;4975221;28;20469;-33
2021/07/03 02:45:21;;;;;;;18.17;13.70;;;16.20;99.90;;;;;;4992521;28;20023;-33
2021/07/03 02:47:47;;;;;;;20.67;14.40;;;16.10;99.90;;;;;;4993758;28;20025;-33
2021/07/03 02:50:16;;;;;;;22.15;15.40;;;16.10;99.90;;;;;;4992732;28;20108;-34
2021/07/03 02:52:42;;;;;;;21.10;15.35;;;16.10;99.90;;;;;;4992629;28;20022;-33
2021/07/03 02:55:08;;;;;;;24.85;16.70;;;16.10;99.90;;;;;;4992991;28;20042;-33
2021/07/03 02:57:35;;;;;;;24.00;15.98;;;16.10;99.90;;;;;;4993300;28;20097;-33
2021/07/03 03:00:00;;;;;;;26.90;17.88;;;16.10;99.90;;;;;;4991952;28;20023;-33
2021/07/03 03:02:26;;;;;;;23.15;16.88;;;16.10;99.90;;;;;;4993446;28;20027;-33
2021/07/03 03:04:52;;;;;;;30.25;19.92;;;16.10;99.90;;;;;;4992074;28;20038;-33
2021/07/03 03:07:17;;;;;;;28.83;18.83;;;16.10;99.90;;;;;;4992197;28;20105;-33
2021/07/03 03:09:43;;;;;;;28.60;19.60;;;16.10;99.90;;;;;;4993356;28;20038;-33
2021/07/03 03:12:10;;;;;;;29.77;19.67;;;16.10;99.90;;;;;;4992607;28;20015;-34
2021/07/03 03:14:36;;;;;;;28.23;18.83;;;16.20;99.90;;;;;;4992821;28;20081;-33
2021/07/03 03:17:02;;;;;;;27.38;19.48;;;16.10;99.90;;;;;;4991218;28;20026;-33
2021/07/03 03:19:27;;;;;;;30.63;20.85;;;16.20;99.90;;;;;;4991732;28;20030;-33
2021/07/03 03:21:53;;;;;;;35.17;23.05;;;16.20;99.90;;;;;;4991871;28;20412;-33
2021/07/03 03:24:18;;;;;;;34.22;23.30;;;16.20;99.90;;;;;;4993380;28;20147;-33
2021/07/03 03:26:44;;;;;;;32.10;21.50;;;16.20;99.90;;;;;;4992484;28;20106;-33
2021/07/03 03:29:10;;;;;;;31.33;21.48;;;16.30;99.90;;;;;;4992042;28;20021;-33
2021/07/03 03:31:35;;;;;;;31.50;21.08;;;16.40;99.90;;;;;;4991886;28;20018;-33
2021/07/03 03:34:02;;;;;;;30.70;20.30;;;16.40;99.90;;;;;;4991331;28;20034;-33
2021/07/03 03:36:27;;;;;;;30.75;21.42;;;16.40;99.90;;;;;;4991808;28;20056;-33
2021/07/03 03:38:53;;;;;;;33.33;22.63;;;16.40;99.90;;;;;;4992759;28;20046;-33
2021/07/03 03:41:20;;;;;;;34.50;22.92;;;16.50;99.90;;;;;;4992150;28;20033;-33
2021/07/03 03:43:46;;;;;;;33.47;22.55;;;16.50;99.90;;;;;;4991566;28;20458;-34
2021/07/03 03:46:13;;;;;;;31.60;22.27;;;16.50;99.90;;;;;;4991812;28;20062;-33
2021/07/03 03:48:38;;;;;;;35.00;22.83;;;16.50;99.90;;;;;;4991934;28;20029;-33
2021/07/03 03:51:04;;;;;;;34.13;22.33;;;16.60;99.90;;;;;;4991798;28;20026;-33
2021/07/03 03:53:30;;;;;;;34.22;22.45;;;16.60;99.90;;;;;;4992257;28;20011;-34
2021/07/03 03:55:56;;;;;;;28.00;19.90;;;16.60;99.90;;;;;;4989486;28;20437;-33
2021/07/03 03:58:21;;;;;;;33.03;20.95;;;16.60;99.90;;;;;;4988468;28;20102;-33
2021/07/03 04:00:47;;;;;;;32.60;21.58;;;16.60;99.90;;;;;;4992048;28;20381;-33
2021/07/03 04:03:13;;;;;;;32.35;22.13;;;16.60;99.90;;;;;;4991394;28;20069;-34
2021/07/03 04:05:38;;;;;;;31.42;22.00;;;16.60;99.90;;;;;;4992426;28;20038;-33
2021/07/03 04:08:05;;;;;;;33.03;22.27;;;16.60;99.90;;;;;;4991228;28;20041;-33
2021/07/03 04:10:30;;;;;;;31.50;22.33;;;16.60;99.90;;;;;;4972437;28;20030;-33
2021/07/03 04:12:56;;;;;;;36.55;21.65;;;16.60;99.90;;;;;;4985386;28;20022;-33
2021/07/03 04:15:22;;;;;;;33.30;22.08;;;16.60;99.90;;;;;;4991862;28;20039;-33
2021/07/03 04:17:47;;;;;;;34.42;23.02;;;16.70;99.90;;;;;;4991432;28;20027;-33
2021/07/03 04:20:16;;;;;;;31.33;21.42;;;16.70;99.90;;;;;;4990911;28;20360;-33
2021/07/03 04:22:42;;;;;;;30.80;21.33;;;16.70;99.90;;;;;;4991331;28;20018;-33
2021/07/03 04:25:15;;;;;;;32.70;21.98;;;16.60;99.90;;;;;;4990960;28;20037;-34
2021/07/03 04:27:41;;;;;;;34.50;23.63;;;16.70;99.90;;;;;;4991551;28;20381;-33
2021/07/03 04:30:09;;;;;;;39.78;24.33;;;16.60;99.90;;;;;;4991291;28;20030;-33
2021/07/03 04:32:35;;;;;;;36.97;25.15;;;16.60;99.90;;;;;;4974578;28;20022;-33
2021/07/03 04:35:03;;;;;;;42.75;27.20;;;16.60;99.90;;;;;;4985557;28;20034;-33
2021/07/03 04:37:28;;;;;;;40.50;25.77;;;16.60;99.90;;;;;;4990667;28;20105;-34
2021/07/03 04:39:54;;;;;;;35.88;25.20;;;16.60;99.90;;;;;;4990081;28;20109;-36
2021/07/03 04:42:19;;;;;;;35.90;24.38;;;16.60;99.90;;;;;;4991647;28;20022;-34
2021/07/03 04:44:45;;;;;;;33.92;23.58;;;16.60;99.90;;;;;;4990639;28;20022;-33
2021/07/03 04:47:11;;;;;;;37.17;24.35;;;16.70;99.90;;;;;;4990789;28;20019;-33
2021/07/03 04:49:37;;;;;;;37.50;24.02;;;16.70;99.90;;;;;;4990801;28;20026;-33
2021/07/03 04:52:03;;;;;;;33.95;24.02;;;16.70;99.90;;;;;;4990467;28;20549;-33
2021/07/03 04:54:28;;;;;;;33.65;23.67;;;16.70;99.90;;;;;;4991035;28;20040;-34
2021/07/03 04:57:12;;;;;;;37.58;24.70;;;16.80;99.90;;;;;;4990739;28;20080;-33
2021/07/03 04:59:43;;;;;;;37.65;24.05;;;16.80;99.90;;;;;;4990601;28;20026;-34
2021/07/03 05:02:11;;;;;;;36.35;24.42;;;16.80;99.90;;;;;;4991554;28;20435;-33
2021/07/03 05:04:38;;;;;;;36.95;23.67;;;16.80;99.90;;;;;;4990748;28;20129;-34
2021/07/03 05:07:04;;;;;;;34.72;22.25;;;16.80;99.90;;;;;;4990303;28;20117;-34
2021/07/03 05:09:30;;;;;;;34.75;23.85;;;16.80;99.90;;;;;;4990496;28;20037;-33
2021/07/03 05:11:55;;;;;;;33.13;22.80;;;16.80;99.90;;;;;;4990415;28;20031;-34
2021/07/03 05:14:21;;;;;;;34.80;23.40;;;16.80;99.90;;;;;;4990130;28;20026;-33
2021/07/03 05:16:47;;;;;;;38.17;24.50;;;16.80;99.90;;;;;;4991022;28;20026;-34
2021/07/03 05:19:13;;;;;;;34.85;23.08;;;16.90;99.90;;;;;;4990743;28;20014;-33
2021/07/03 05:21:39;;;;;;;39.83;24.15;;;16.90;99.90;;;;;;4990001;28;20037;-34
2021/07/03 05:24:05;;;;;;;33.45;23.25;;;16.90;99.90;;;;;;4990172;28;20030;-34
2021/07/03 05:26:30;;;;;;;35.90;24.60;;;16.90;99.90;;;;;;4990735;28;20026;-33
2021/07/03 05:28:56;;;;;;;38.65;26.10;;;16.90;99.90;;;;;;4989814;28;20511;-33
2021/07/03 05:31:22;;;;;;;37.50;25.20;;;17.00;99.90;;;;;;4990871;28;20018;-34
2021/07/03 05:33:47;;;;;;;38.08;25.73;;;17.00;99.90;;;;;;4990165;28;20465;-33
2021/07/03 05:36:13;;;;;;;37.72;25.42;;;17.00;99.90;;;;;;4989461;28;20041;-34
2021/07/03 05:38:45;;;;;;;37.45;25.45;;;17.00;99.90;;;;;;4990558;28;20026;-33
2021/07/03 05:41:11;;;;;;;36.50;25.02;;;17.10;99.90;;;;;;4989401;28;20118;-33
2021/07/03 05:43:37;;;;;;;39.55;26.05;;;17.10;99.90;;;;;;4990705;28;20050;-34
2021/07/03 05:46:04;;;;;;;37.65;25.13;;;17.10;99.90;;;;;;4989080;28;20366;-33
2021/07/03 05:48:29;;;;;;;37.45;24.75;;;17.20;99.90;;;;;;4989728;28;20076;-34
2021/07/03 05:50:55;;;;;;;36.22;23.60;;;17.30;99.90;;;;;;4989146;28;20014;-33
2021/07/03 05:53:20;;;;;;;39.80;25.25;;;17.30;99.90;;;;;;4989671;28;20382;-33
2021/07/03 05:55:46;;;;;;;33.30;23.05;;;17.40;99.90;;;;;;4989301;28;20221;-33
2021/07/03 05:58:12;;;;;;;37.05;24.75;;;17.30;99.90;;;;;;4990978;28;20512;-34
2021/07/03 06:00:37;;;;;;;35.70;24.02;;;17.40;99.90;;;;;;4993800;28;20034;-33
2021/07/03 06:03:03;;;;;;;39.35;25.45;;;17.50;99.90;;;;;;4993100;28;20019;-33
2021/07/03 06:05:28;;;;;;;38.15;25.30;;;17.50;99.90;;;;;;4993876;28;20546;-34
2021/07/03 06:07:54;;;;;;;36.70;25.85;;;17.60;99.90;;;;;;4993312;28;20030;-33
2021/07/03 06:10:19;;;;;;;40.53;26.67;;;17.60;99.90;;;;;;4993225;28;20489;-34
2021/07/03 06:12:45;;;;;;;36.63;25.00;;;17.70;99.90;;;;;;4993920;28;20022;-34
2021/07/03 06:15:12;;;;;;;39.53;26.40;;;17.70;99.90;;;;;;4994418;28;20034;-34
2021/07/03 06:17:37;;;;;;;34.95;23.67;;;17.70;99.90;;;;;;4993383;28;20034;-33
2021/07/03 06:20:04;;;;;;;41.28;25.27;;;17.70;99.90;;;;;;4993842;28;20429;-33
2021/07/03 06:22:30;;;;;;;38.10;25.08;;;17.70;99.90;;;;;;4993415;28;20066;-32
2021/07/03 06:24:56;;;;;;;37.05;26.25;;;17.80;99.90;;;;;;4992900;28;20022;-33
2021/07/03 06:27:21;;;;;;;37.35;25.13;;;17.80;99.90;;;;;;4993879;28;20045;-33
2021/07/03 06:29:47;;;;;;;37.55;25.60;;;17.90;99.90;;;;;;4993914;28;20026;-33
2021/07/03 06:32:13;;;;;;;35.97;24.90;;;17.90;99.90;;;;;;4993163;28;20478;-33
2021/07/03 06:34:39;;;;;;;31.50;22.83;;;18.00;99.90;;;;;;4992962;28;20038;-40
2021/07/03 06:37:04;;;;;;;32.25;22.35;;;18.00;99.90;;;;;;4992733;28;20014;-35
2021/07/03 06:39:30;;;;;;;32.47;22.00;;;18.10;99.90;;;;;;4993253;28;20026;-33
2021/07/03 06:41:56;;;;;;;30.60;21.13;;;18.10;99.90;;;;;;4992956;28;20064;-35
2021/07/03 06:44:21;;;;;;;31.23;21.85;;;18.10;99.90;;;;;;4993107;28;20450;-35
2021/07/03 06:46:50;;;;;;;32.15;21.63;;;18.20;99.90;;;;;;4992906;28;20046;-36
2021/07/03 06:49:16;;;;;;;35.08;23.13;;;18.20;99.90;;;;;;4993328;28;20101;-35
2021/07/03 06:51:44;;;;;;;31.85;20.83;;;18.20;99.90;;;;;;4992340;28;20193;-35
2021/07/03 06:54:10;;;;;;;32.55;21.67;;;18.20;99.90;;;;;;4993574;28;20042;-33
2021/07/03 06:56:36;;;;;;;34.08;23.02;;;18.20;99.90;;;;;;4993124;28;20018;-35
2021/07/03 06:59:04;;;;;;;31.38;21.25;;;18.30;99.90;;;;;;4991968;28;20069;-35
2021/07/03 07:01:30;;;;;;;28.45;19.63;;;18.30;99.90;;;;;;4992805;28;20101;-34
2021/07/03 07:03:56;;;;;;;26.15;18.95;;;18.40;99.90;;;;;;4991622;28;20188;-35
2021/07/03 07:06:21;;;;;;;25.88;19.83;;;18.50;99.90;;;;;;4992564;28;20414;-35
2021/07/03 07:08:46;;;;;;;33.58;21.50;;;18.50;99.90;;;;;;4991882;28;20034;-34
2021/07/03 07:11:12;;;;;;;32.55;22.55;;;18.60;99.90;;;;;;4992653;28;20026;-35
2021/07/03 07:13:37;;;;;;;28.40;21.45;;;18.60;99.90;;;;;;4992055;28;20608;-35
2021/07/03 07:16:04;;;;;;;30.90;22.35;;;18.70;99.90;;;;;;4988643;28;20100;-34
2021/07/03 07:18:29;;;;;;;32.35;22.05;;;18.70;99.90;;;;;;4992603;28;20010;-34
2021/07/03 07:20:55;;;;;;;28.83;20.20;;;18.80;99.90;;;;;;4990470;28;20044;-34
2021/07/03 07:23:20;;;;;;;28.38;21.33;;;18.80;99.90;;;;;;4992902;28;20025;-34
2021/07/03 07:25:47;;;;;;;28.70;20.75;;;18.90;99.90;;;;;;4992770;28;20034;-34
2021/07/03 07:28:13;;;;;;;30.48;20.88;;;18.90;99.90;;;;;;4991037;28;20015;-34
2021/07/03 07:30:38;;;;;;;22.08;16.65;;;18.90;99.90;;;;;;4992185;28;20033;-34
2021/07/03 07:33:04;;;;;;;21.52;16.55;;;19.00;99.90;;;;;;4992286;28;20031;-34
2021/07/03 07:35:30;;;;;;;23.63;17.80;;;19.00;99.90;;;;;;4992052;28;20034;-33
2021/07/03 07:37:55;;;;;;;22.83;17.15;;;19.10;99.90;;;;;;4992418;28;20056;-33
2021/07/03 07:40:21;;;;;;;24.95;18.17;;;19.10;99.90;;;;;;4992718;28;20469;-34
2021/07/03 07:42:47;;;;;;;24.42;18.30;;;19.20;99.90;;;;;;4992586;28;20355;-34
2021/07/03 07:45:13;;;;;;;22.90;17.08;;;19.20;99.90;;;;;;4992118;28;20096;-34
2021/07/03 07:47:39;;;;;;;23.00;18.08;;;19.30;99.90;;;;;;4991310;28;20030;-34
2021/07/03 07:50:07;;;;;;;18.08;15.35;;;19.40;99.90;;;;;;4991897;28;20030;-34
2021/07/03 07:52:33;;;;;;;24.13;18.08;;;19.50;99.90;;;;;;4992880;28;20469;-34
2021/07/03 07:54:59;;;;;;;21.80;16.98;;;19.50;99.90;;;;;;4991191;28;20705;-34
2021/07/03 07:57:25;;;;;;;22.10;16.55;;;19.60;99.90;;;;;;4992513;28;20169;-34
2021/07/03 07:59:51;;;;;;;19.98;17.10;;;19.60;99.90;;;;;;4991796;28;20063;-34
2021/07/03 08:02:16;;;;;;;22.13;17.48;;;19.70;99.90;;;;;;4991844;28;20018;-34
2021/07/03 08:04:42;;;;;;;20.52;15.43;;;19.70;99.90;;;;;;4991429;28;20010;-35
2021/07/03 08:07:07;;;;;;;18.65;13.43;;;19.70;99.90;;;;;;4992574;28;20428;-34
2021/07/03 08:09:33;;;;;;;19.00;15.27;;;19.90;99.90;;;;;;4991457;28;20057;-34
2021/07/03 08:12:19;;;;;;;21.42;16.23;;;20.00;99.90;;;;;;4991849;28;20340;-34
2021/07/03 08:14:44;;;;;;;20.75;16.30;;;20.00;99.90;;;;;;4978155;28;20493;-34
2021/07/03 08:17:10;;;;;;;17.10;14.00;;;20.10;99.90;;;;;;4990806;28;20029;-34
2021/07/03 08:19:38;;;;;;;16.30;12.70;;;20.10;99.90;;;;;;4992240;28;20030;-33
2021/07/03 08:22:04;;;;;;;17.98;13.95;;;20.10;99.90;;;;;;4989842;28;20421;-34
2021/07/03 08:24:30;;;;;;;18.85;13.43;;;20.10;99.90;;;;;;4989978;28;20466;-34
2021/07/03 08:26:55;;;;;;;18.38;14.73;;;20.20;99.90;;;;;;4991157;28;20023;-33
2021/07/03 08:29:21;;;;;;;17.77;14.23;;;20.30;99.90;;;;;;4990444;28;20034;-32
2021/07/03 08:31:46;;;;;;;17.30;13.48;;;20.40;99.90;;;;;;4990197;28;20030;-34
2021/07/03 08:34:12;;;;;;;17.92;14.75;;;20.50;99.90;;;;;;4991359;28;20042;-33
2021/07/03 08:36:38;;;;;;;12.98;11.50;;;20.50;99.90;;;;;;4991399;28;20037;-33
2021/07/03 08:39:04;;;;;;;13.82;11.00;;;20.60;99.90;;;;;;4990408;28;20019;-34
2021/07/03 08:41:32;;;;;;;15.38;12.73;;;20.60;99.90;;;;;;4991302;28;20486;-34
2021/07/03 08:43:58;;;;;;;19.58;14.93;;;20.60;99.90;;;;;;4990818;28;20096;-33
2021/07/03 08:46:24;;;;;;;16.60;13.80;;;20.70;99.90;;;;;;4990926;28;20038;-33
2021/07/03 08:48:54;;;;;;;14.57;11.95;;;20.70;99.90;;;;;;4990846;28;20034;-32
2021/07/03 08:51:22;;;;;;;12.27;10.43;;;20.70;99.90;;;;;;4990415;28;20029;-33
2021/07/03 08:53:48;;;;;;;17.48;14.25;;;20.80;99.90;;;;;;4991344;28;20038;-33
2021/07/03 08:56:14;;;;;;;20.92;14.95;;;20.80;99.90;;;;;;4990965;28;20030;-32
2021/07/03 08:58:40;;;;;;;20.52;15.02;;;20.90;99.90;;;;;;4990137;28;20081;-33
2021/07/03 09:01:05;;;;;;;18.25;13.32;;;20.90;99.90;;;;;;4991186;28;20026;-32
2021/07/03 09:03:32;;;;;;;14.90;11.60;;;20.90;99.90;;;;;;4990906;28;20438;-33
2021/07/03 09:06:00;;;;;;;16.95;13.05;;;20.90;99.90;;;;;;4990255;28;20149;-32
2021/07/03 09:08:27;;;;;;;17.90;11.98;;;20.90;99.90;;;;;;4991535;28;20030;-33
2021/07/03 09:11:07;;;;;;;14.10;11.18;;;21.00;99.90;;;;;;4990596;28;20022;-33
2021/07/03 09:13:35;;;;;;;13.27;10.27;;;21.00;99.90;;;;;;4990203;28;20026;-33
2021/07/03 09:16:00;;;;;;;9.18;8.15;;;21.10;99.90;;;;;;4990521;28;20038;-34
2021/07/03 09:18:28;;;;;;;8.50;7.60;;;21.20;99.90;;;;;;4991272;28;20428;-34
2021/07/03 09:20:58;;;;;;;12.20;9.98;;;21.20;99.90;;;;;;4970651;28;20023;-34
2021/07/03 09:23:34;;;;;;;16.10;12.25;;;21.40;99.90;;;;;;4985984;28;20015;-34
2021/07/03 09:26:02;;;;;;;14.05;11.13;;;21.50;99.90;;;;;;4990056;28;20412;-33
2021/07/03 09:28:38;;;;;;;14.63;11.23;;;21.70;99.90;;;;;;4990342;28;20108;-32
2021/07/03 09:31:08;;;;;;;10.73;9.43;;;21.70;99.90;;;;;;4989743;28;20038;-32
2021/07/03 09:33:39;;;;;;;12.77;10.45;;;21.70;99.90;;;;;;4989812;28;20068;-32
2021/07/03 09:36:11;;;;;;;10.55;9.02;;;21.70;99.90;;;;;;4990333;28;20152;-33
2021/07/03 09:38:42;;;;;;;11.40;10.13;;;21.80;99.90;;;;;;4990601;28;20386;-33
2021/07/03 09:41:10;;;;;;;11.00;8.87;;;21.90;99.90;;;;;;4990024;28;20026;-32
2021/07/03 09:43:40;;;;;;;12.27;9.43;;;22.00;99.90;;;;;;4990306;28;20097;-34
2021/07/03 09:46:06;;;;;;;9.85;8.65;;;22.10;99.50;;;;;;4990542;28;20033;-33
2021/07/03 09:48:31;;;;;;;11.75;8.98;;;22.20;99.40;;;;;;4989642;28;20022;-32
2021/07/03 09:51:07;;;;;;;10.05;8.65;;;22.30;98.70;;;;;;4989694;28;20576;-32
2021/07/03 09:53:33;;;;;;;13.15;10.50;;;22.40;98.50;;;;;;4991102;28;20026;-32
2021/07/03 09:55:59;;;;;;;11.63;9.52;;;22.60;97.60;;;;;;4989259;28;20679;-32
2021/07/03 09:58:25;;;;;;;9.43;7.68;;;22.70;97.50;;;;;;4990828;28;20123;-33
2021/07/03 10:00:50;;;;;;;7.78;6.90;;;22.80;97.50;;;;;;4989678;28;20022;-33
2021/07/03 10:03:16;;;;;;;13.50;10.05;;;22.80;97.60;;;;;;4989313;28;20018;-32
2021/07/03 10:05:51;;;;;;;8.35;7.20;;;22.80;97.30;;;;;;4990125;28;20488;-33
2021/07/03 10:08:20;;;;;;;8.48;7.55;;;22.90;97.50;;;;;;4990132;28;20024;-33
2021/07/03 10:10:55;;;;;;;8.48;7.55;;;22.90;97.60;;;;;;4989625;28;20477;-32
2021/07/03 10:13:22;;;;;;;9.32;7.93;;;22.80;97.70;;;;;;4989788;28;20409;-32
2021/07/03 10:15:48;;;;;;;8.27;7.18;;;22.80;97.80;;;;;;4988966;28;20169;-33
2021/07/03 10:18:22;;;;;;;7.55;6.50;;;22.80;97.70;;;;;;4990332;28;20500;-33
2021/07/03 10:20:49;;;;;;;9.18;7.72;;;22.90;97.60;;;;;;4989424;28;20070;-34
2021/07/03 10:23:14;;;;;;;7.68;6.93;;;23.00;96.40;;;;;;4989688;28;20401;-32
2021/07/03 10:25:49;;;;;;;10.50;7.30;;;23.10;96.60;;;;;;4989244;28;20061;-32
2021/07/03 10:28:16;;;;;;;9.05;6.97;;;23.20;96.60;;;;;;4970497;28;20031;-34
2021/07/03 10:30:45;;;;;;;8.00;7.13;;;23.20;96.60;;;;;;4984255;28;20035;-32
2021/07/03 10:33:20;;;;;;;7.72;6.93;;;23.20;96.60;;;;;;4990394;28;20023;-33
2021/07/03 10:35:46;;;;;;;7.03;6.32;;;23.20;96.50;;;;;;4989537;28;20451;-33
2021/07/03 10:38:21;;;;;;;7.47;6.13;;;23.30;96.20;;;;;;4988738;28;20474;-33
2021/07/03 10:40:52;;;;;;;7.65;6.85;;;23.40;96.20;;;;;;4989397;28;20023;-32
2021/07/03 10:43:18;;;;;;;7.63;6.65;;;23.40;95.80;;;;;;4989716;28;20397;-32
2021/07/03 10:45:52;;;;;;;8.32;7.10;;;23.50;95.80;;;;;;4992582;28;20026;-32
2021/07/03 10:48:22;;;;;;;7.32;6.63;;;23.60;95.90;;;;;;4993976;28;20065;-33
2021/07/03 10:50:48;;;;;;;6.55;5.90;;;23.60;95.90;;;;;;4992213;28;20018;-33
2021/07/03 10:53:26;;;;;;;8.70;7.35;;;23.60;95.70;;;;;;4993312;28;20085;-32
2021/07/03 10:55:53;;;;;;;9.40;7.95;;;23.80;95.50;;;;;;4993356;28;20149;-32
2021/07/03 10:58:21;;;;;;;8.25;7.15;;;23.90;94.80;;;;;;4992921;28;20474;-32
2021/07/03 11:00:51;;;;;;;8.27;7.43;;;24.10;94.80;;;;;;4992618;28;20520;-32
2021/07/03 11:03:23;;;;;;;7.85;6.95;;;24.30;94.40;;;;;;4993555;28;20149;-33
2021/07/03 11:05:50;;;;;;;7.07;6.38;;;24.50;94.20;;;;;;4992109;28;20137;-32
2021/07/03 11:08:19;;;;;;;7.55;6.75;;;24.70;93.80;;;;;;4993091;28;20336;-33
2021/07/03 11:10:45;;;;;;;7.78;6.75;;;24.90;93.60;;;;;;4993073;28;20026;-33
2021/07/03 11:13:22;;;;;;;6.78;6.07;;;25.10;93.50;;;;;;4992266;28;20025;-33
2021/07/03 11:15:47;;;;;;;7.65;6.88;;;25.20;93.50;;;;;;4992053;28;20027;-33
2021/07/03 11:18:13;;;;;;;7.35;6.65;;;25.20;92.70;;;;;;4993265;28;20477;-33
2021/07/03 11:20:42;;;;;;;7.63;6.82;;;25.30;92.30;;;;;;4992257;28;20392;-33
2021/07/03 11:23:09;;;;;;;6.93;6.22;;;25.40;92.40;;;;;;4991973;28;20018;-33
2021/07/03 11:25:39;;;;;;;6.47;5.88;;;25.40;92.60;;;;;;4993819;28;20104;-33
2021/07/03 11:28:14;;;;;;;5.70;5.05;;;25.30;92.90;;;;;;4991999;28;20018;-32
2021/07/03 11:30:41;;;;;;;7.70;5.15;;;25.20;93.10;;;;;;4993197;28;20026;-32
2021/07/03 11:33:08;;;;;;;6.47;5.65;;;25.20;93.30;;;;;;4991641;28;20474;-32
2021/07/03 11:35:35;;;;;;;6.20;5.50;;;25.20;93.10;;;;;;4992892;28;20089;-32
2021/07/03 11:38:01;;;;;;;6.45;5.82;;;25.20;93.10;;;;;;4992437;28;20022;-32
2021/07/03 11:40:29;;;;;;;5.68;5.15;;;25.20;92.40;;;;;;4992185;28;20023;-34
2021/07/03 11:42:59;;;;;;;5.97;5.45;;;25.30;92.40;;;;;;4991650;28;20022;-34
2021/07/03 11:45:27;;;;;;;5.78;5.22;;;25.40;92.30;;;;;;4993009;28;20027;-32
2021/07/03 11:48:04;;;;;;;5.63;5.03;;;25.50;92.50;;;;;;4991535;28;20049;-33
2021/07/03 11:50:35;;;;;;;5.22;4.82;;;25.60;92.40;;;;;;4992239;28;20358;-32
2021/07/03 11:53:02;;;;;;;5.38;4.88;;;25.70;92.20;;;;;;4991658;28;20022;-32
2021/07/03 11:55:37;;;;;;;6.28;5.78;;;25.70;92.20;;;;;;4992046;28;20049;-32
2021/07/03 11:58:04;;;;;;;6.53;5.95;;;25.80;91.90;;;;;;4991310;28;20018;-32
2021/07/03 12:00:34;;;;;;;6.70;6.03;;;25.80;91.50;;;;;;4993132;28;20030;-32
2021/07/03 12:03:01;;;;;;;5.95;5.45;;;25.90;91.20;;;;;;4990610;28;20050;-32
2021/07/03 12:05:29;;;;;;;5.70;5.20;;;26.00;90.60;;;;;;4992258;28;20050;-32
2021/07/03 12:08:07;;;;;;;5.30;4.90;;;26.10;90.70;;;;;;4991048;28;20420;-32
2021/07/03 12:10:48;;;;;;;9.57;8.10;;;26.10;91.00;;;;;;4992044;28;20105;-32
2021/07/03 12:13:21;;;;;;;7.93;6.83;;;26.20;90.80;;;;;;4991469;28;20022;-34
2021/07/03 12:16:11;;;;;;;6.65;5.55;;;26.20;90.80;;;;;;4991330;28;20034;-35
2021/07/03 12:18:40;;;;;;;6.18;5.57;;;26.20;90.80;;;;;;4991677;28;20022;-34
2021/07/03 12:21:19;;;;;;;5.68;4.72;;;26.30;90.90;;;;;;4990809;28;20038;-34
2021/07/03 12:23:47;;;;;;;5.18;4.78;;;26.40;90.70;;;;;;4990834;28;20072;-35
2021/07/03 12:26:24;;;;;;;5.70;5.20;;;26.50;90.80;;;;;;4992211;28;20030;-35
2021/07/03 12:29:00;;;;;;;5.22;4.72;;;26.50;90.70;;;;;;4990926;28;20030;-34
2021/07/03 12:31:31;;;;;;;5.25;4.70;;;26.60;90.90;;;;;;4991531;28;20054;-34